Time;durP1;ratioP1;P1;durP2;ratioP2;P2;SDS_P1;SDS_P2;PMS_P1;PMS_P2;Temp;Humidity;BMP_temperature;BMP_pressure;BME280_temperature;BME280_humidity;BME280_pressure;Samples;Min_cycle;Max_cycle;Signal;HPM_P1;HPM_P2
2022/07/19 00:00:27;;;;;;;4.67;2.67;;;;;;;;;;5011593;28;20212;-81
2022/07/19 00:02:55;;;;;;;4.57;2.80;;;;;;;;;;5012298;28;20247;-81
2022/07/19 00:05:22;;;;;;;7.97;3.00;;;;;;;;;;5015775;28;20207;-81
2022/07/19 00:07:49;;;;;;;4.67;2.43;;;;;;;;;;5011564;28;20228;-81
2022/07/19 00:10:17;;;;;;;4.77;2.50;;;;;;;;;;5013542;28;20672;-81
2022/07/19 00:12:46;;;;;;;7.17;2.90;;;;;;;;;;5011337;28;20292;-81
2022/07/19 00:15:14;;;;;;;7.53;2.87;;;;;;;;;;5012578;28;20231;-81
2022/07/19 00:17:42;;;;;;;6.67;2.40;;;;;;;;;;5011794;28;20228;-81
2022/07/19 00:20:10;;;;;;;7.37;2.70;;;;;;;;;;5012710;28;20212;-81
2022/07/19 00:22:37;;;;;;;5.23;2.90;;;;;;;;;;5010938;28;20205;-81
2022/07/19 00:25:04;;;;;;;9.77;3.13;;;;;;;;;;5008617;28;20213;-81
2022/07/19 00:27:31;;;;;;;5.20;2.50;;;;;;;;;;5008229;28;20224;-81
2022/07/19 00:30:00;;;;;;;5.30;2.80;;;;;;;;;;5012276;28;20203;-81
2022/07/19 00:32:27;;;;;;;7.40;3.00;;;;;;;;;;5010437;28;20645;-81
2022/07/19 00:34:54;;;;;;;5.93;2.90;;;;;;;;;;5010673;28;20375;-81
2022/07/19 00:37:21;;;;;;;4.93;2.73;;;;;;;;;;5009007;28;20259;-81
2022/07/19 00:39:49;;;;;;;13.27;2.83;;;;;;;;;;5009335;28;20214;-81
2022/07/19 00:42:16;;;;;;;6.20;3.00;;;;;;;;;;5011420;28;20205;-81
2022/07/19 00:44:43;;;;;;;4.70;2.93;;;;;;;;;;5008699;28;20294;-81
2022/07/19 00:47:11;;;;;;;6.23;2.90;;;;;;;;;;5009376;28;20221;-81
2022/07/19 00:49:39;;;;;;;7.00;3.07;;;;;;;;;;5009446;28;20685;-81
2022/07/19 00:52:07;;;;;;;8.20;2.87;;;;;;;;;;5010955;28;20209;-81
2022/07/19 00:54:36;;;;;;;9.47;2.70;;;;;;;;;;5013432;28;20299;-81
2022/07/19 00:57:04;;;;;;;5.47;2.80;;;;;;;;;;5009964;28;20236;-81
2022/07/19 00:59:31;;;;;;;6.30;2.80;;;;;;;;;;5010661;28;20718;-81
2022/07/19 01:01:58;;;;;;;5.70;3.03;;;;;;;;;;5011873;28;20236;-81
2022/07/19 01:04:28;;;;;;;6.97;2.80;;;;;;;;;;5010487;28;20200;-81
2022/07/19 01:06:55;;;;;;;7.83;3.00;;;;;;;;;;5012524;28;20208;-81
2022/07/19 01:09:22;;;;;;;6.60;3.10;;;;;;;;;;5010055;28;20204;-81
2022/07/19 01:11:50;;;;;;;9.77;3.03;;;;;;;;;;5010679;28;20227;-81
2022/07/19 01:14:17;;;;;;;9.87;3.10;;;;;;;;;;5008172;28;20238;-81
2022/07/19 01:16:45;;;;;;;7.03;3.27;;;;;;;;;;5008305;28;20239;-81
2022/07/19 01:19:13;;;;;;;6.77;2.93;;;;;;;;;;5009961;28;20235;-81
2022/07/19 01:21:42;;;;;;;7.27;2.50;;;;;;;;;;5010014;28;20213;-81
2022/07/19 01:24:09;;;;;;;5.03;2.90;;;;;;;;;;5010159;28;20519;-81
2022/07/19 01:26:36;;;;;;;7.03;3.07;;;;;;;;;;5010787;28;20204;-81
2022/07/19 01:29:04;;;;;;;7.57;3.40;;;;;;;;;;5060735;22;20455;-83
2022/07/19 01:31:32;;;;;;;6.20;3.10;;;;;;;;;;5031525;28;20203;-82
2022/07/19 01:34:05;;;;;;;4.57;2.83;;;;;;;;;;5034435;28;20326;-81
2022/07/19 01:36:39;;;;;;;10.50;3.23;;;;;;;;;;5032787;28;20199;-82
2022/07/19 01:39:08;;;;;;;5.60;2.83;;;;;;;;;;5033594;28;20302;-82
2022/07/19 01:41:36;;;;;;;5.77;2.97;;;;;;;;;;5037754;28;20234;-82
2022/07/19 01:44:06;;;;;;;5.00;3.17;;;;;;;;;;5036493;28;20208;-79
2022/07/19 01:46:40;;;;;;;9.47;3.20;;;;;;;;;;5039123;28;20655;-81
2022/07/19 01:49:10;;;;;;;7.27;3.23;;;;;;;;;;5033574;28;20226;-81
2022/07/19 01:51:37;;;;;;;7.40;3.43;;;;;;;;;;5042094;28;20270;-81
2022/07/19 01:54:17;;;;;;;5.13;3.07;;;;;;;;;;5036568;28;20223;-80
2022/07/19 01:56:47;;;;;;;7.83;2.93;;;;;;;;;;5036332;28;20264;-81
2022/07/19 01:59:15;;;;;;;3.80;2.67;;;;;;;;;;5040680;28;20683;-80
2022/07/19 02:01:44;;;;;;;5.03;3.10;;;;;;;;;;5038403;28;20626;-81
2022/07/19 02:04:16;;;;;;;5.43;2.67;;;;;;;;;;5038917;28;20526;-80
2022/07/19 02:06:49;;;;;;;6.10;2.97;;;;;;;;;;5044805;28;20226;-81
2022/07/19 02:09:17;;;;;;;7.60;3.13;;;;;;;;;;5039825;28;20227;-80
2022/07/19 02:11:51;;;;;;;6.07;2.93;;;;;;;;;;5038676;28;20207;-80
2022/07/19 02:14:24;;;;;;;6.80;3.40;;;;;;;;;;5036938;28;20212;-80
2022/07/19 02:16:52;;;;;;;5.40;3.00;;;;;;;;;;5039510;28;20238;-79
2022/07/19 02:19:22;;;;;;;5.77;3.00;;;;;;;;;;5036395;28;20338;-79
2022/07/19 02:21:49;;;;;;;5.77;3.07;;;;;;;;;;5040095;28;20259;-80
2022/07/19 02:24:19;;;;;;;3.77;2.70;;;;;;;;;;5042521;28;20263;-81
2022/07/19 02:26:46;;;;;;;4.77;2.77;;;;;;;;;;5037029;28;20199;-79
2022/07/19 02:29:13;;;;;;;7.90;3.50;;;;;;;;;;5036969;28;20255;-79
2022/07/19 02:31:41;;;;;;;8.73;2.90;;;;;;;;;;5036984;28;20287;-82
2022/07/19 02:34:08;;;;;;;5.97;3.30;;;;;;;;;;5039847;28;20220;-79
2022/07/19 02:36:41;;;;;;;7.70;2.90;;;;;;;;;;5037890;28;20668;-80
2022/07/19 02:39:08;;;;;;;7.63;3.47;;;;;;;;;;5039316;28;20796;-81
2022/07/19 02:41:38;;;;;;;5.47;2.90;;;;;;;;;;5036519;28;20635;-79
2022/07/19 02:44:05;;;;;;;7.30;3.30;;;;;;;;;;5038024;28;20242;-80
2022/07/19 02:46:33;;;;;;;7.90;3.13;;;;;;;;;;5039462;28;20286;-80
2022/07/19 02:49:00;;;;;;;6.43;3.27;;;;;;;;;;5033620;28;20234;-81
2022/07/19 02:51:30;;;;;;;5.37;3.27;;;;;;;;;;5035777;28;20215;-80
2022/07/19 02:53:58;;;;;;;5.53;3.07;;;;;;;;;;5039318;28;20230;-80
2022/07/19 02:56:26;;;;;;;8.07;3.30;;;;;;;;;;5043136;28;20208;-80
2022/07/19 02:58:55;;;;;;;9.17;3.40;;;;;;;;;;5035628;28;20223;-80
2022/07/19 03:01:31;;;;;;;9.33;3.70;;;;;;;;;;5036183;28;20291;-80
2022/07/19 03:04:01;;;;;;;7.90;2.93;;;;;;;;;;5038431;28;20214;-80
2022/07/19 03:06:29;;;;;;;6.17;3.20;;;;;;;;;;5034969;28;20210;-79
2022/07/19 03:08:58;;;;;;;6.77;3.13;;;;;;;;;;5034952;28;20250;-80
2022/07/19 03:11:28;;;;;;;13.20;3.33;;;;;;;;;;5038935;28;20418;-81
2022/07/19 03:13:57;;;;;;;9.53;3.87;;;;;;;;;;5041358;28;20453;-81
2022/07/19 03:16:27;;;;;;;7.33;3.00;;;;;;;;;;5047375;28;20559;-81
2022/07/19 03:18:54;;;;;;;13.93;3.67;;;;;;;;;;5042145;28;20306;-81
2022/07/19 03:21:22;;;;;;;9.20;2.93;;;;;;;;;;5043488;28;20630;-80
2022/07/19 03:23:51;;;;;;;10.80;3.20;;;;;;;;;;5039521;28;20199;-81
2022/07/19 03:26:22;;;;;;;7.60;3.03;;;;;;;;;;5041881;28;20203;-80
2022/07/19 03:28:49;;;;;;;7.67;3.30;;;;;;;;;;5043046;28;20305;-80
2022/07/19 03:31:18;;;;;;;7.97;3.40;;;;;;;;;;5043829;28;20203;-80
2022/07/19 03:33:45;;;;;;;9.10;3.47;;;;;;;;;;5043404;28;20212;-80
2022/07/19 03:36:13;;;;;;;5.53;3.13;;;;;;;;;;5041346;28;20207;-81
2022/07/19 03:38:43;;;;;;;17.93;3.63;;;;;;;;;;5038095;28;20284;-80
2022/07/19 03:41:13;;;;;;;6.27;3.30;;;;;;;;;;5044541;28;20215;-81
2022/07/19 03:43:41;;;;;;;7.67;2.97;;;;;;;;;;5042340;28;20282;-80
2022/07/19 03:46:08;;;;;;;7.83;3.57;;;;;;;;;;5042479;28;20653;-81
2022/07/19 03:48:39;;;;;;;8.60;3.70;;;;;;;;;;5042829;28;20227;-81
2022/07/19 03:51:07;;;;;;;10.03;3.40;;;;;;;;;;5042556;28;20214;-81
2022/07/19 03:53:35;;;;;;;10.97;4.00;;;;;;;;;;5041137;28;20204;-81
2022/07/19 03:56:02;;;;;;;7.90;3.40;;;;;;;;;;5041358;28;20207;-80
2022/07/19 03:58:33;;;;;;;11.33;3.50;;;;;;;;;;5042004;28;20223;-80
2022/07/19 04:01:00;;;;;;;15.13;3.20;;;;;;;;;;5044034;28;20204;-80
2022/07/19 04:03:28;;;;;;;7.73;3.53;;;;;;;;;;5046782;28;20196;-81
2022/07/19 04:05:58;;;;;;;7.30;3.30;;;;;;;;;;5044394;28;20204;-80
2022/07/19 04:08:28;;;;;;;9.40;3.40;;;;;;;;;;5046021;28;20219;-80
2022/07/19 04:10:55;;;;;;;5.97;2.87;;;;;;;;;;5043762;28;20214;-80
2022/07/19 04:13:25;;;;;;;9.70;3.20;;;;;;;;;;5044007;28;20204;-81
2022/07/19 04:15:55;;;;;;;6.00;3.27;;;;;;;;;;5046401;28;20219;-80
2022/07/19 04:18:23;;;;;;;9.07;3.57;;;;;;;;;;5043756;28;20216;-80
2022/07/19 04:20:59;;;;;;;6.37;3.10;;;;;;;;;;5050551;28;20215;-79
2022/07/19 04:23:30;;;;;;;9.80;2.90;;;;;;;;;;5049740;28;20230;-79
2022/07/19 04:26:06;;;;;;;7.23;2.80;;;;;;;;;;5046998;28;20192;-81
2022/07/19 04:28:33;;;;;;;7.67;3.73;;;;;;;;;;5040011;28;20229;-80
2022/07/19 04:31:11;;;;;;;6.37;2.60;;;;;;;;;;5041052;28;20217;-80
2022/07/19 04:33:44;;;;;;;8.17;3.00;;;;;;;;;;5034194;28;20203;-79
2022/07/19 04:36:11;;;;;;;15.53;3.43;;;;;;;;;;5040652;28;20211;-80
2022/07/19 04:38:40;;;;;;;16.03;3.40;;;;;;;;;;5036768;28;20230;-81
2022/07/19 04:41:07;;;;;;;24.23;3.57;;;;;;;;;;5035226;28;20545;-80
2022/07/19 04:43:34;;;;;;;23.07;3.67;;;;;;;;;;5043362;28;20239;-79
2022/07/19 04:46:08;;;;;;;19.07;2.93;;;;;;;;;;5036636;28;20203;-79
2022/07/19 04:48:42;;;;;;;9.17;3.07;;;;;;;;;;5035651;28;20228;-80
2022/07/19 04:51:13;;;;;;;8.30;2.73;;;;;;;;;;5036092;28;20204;-81
2022/07/19 04:53:44;;;;;;;8.43;3.33;;;;;;;;;;5038233;28;20207;-80
2022/07/19 04:56:11;;;;;;;8.23;2.60;;;;;;;;;;5041750;28;20287;-80
2022/07/19 04:58:39;;;;;;;7.60;2.60;;;;;;;;;;5043475;28;20211;-80
2022/07/19 05:01:12;;;;;;;14.93;3.00;;;;;;;;;;5039078;28;20217;-80
2022/07/19 05:03:51;;;;;;;20.10;3.17;;;;;;;;;;5039106;28;20225;-81
2022/07/19 05:06:19;;;;;;;12.27;3.10;;;;;;;;;;5037117;28;20210;-80
2022/07/19 05:08:52;;;;;;;4.67;2.53;;;;;;;;;;5038819;28;20646;-80
2022/07/19 05:11:23;;;;;;;5.60;2.87;;;;;;;;;;5040467;28;20212;-81
2022/07/19 05:13:51;;;;;;;14.63;2.80;;;;;;;;;;5039396;28;20213;-80
2022/07/19 05:16:21;;;;;;;13.90;2.90;;;;;;;;;;5041318;28;20211;-82
2022/07/19 05:18:48;;;;;;;13.73;3.03;;;;;;;;;;5039420;28;20235;-81
2022/07/19 05:21:19;;;;;;;12.80;2.83;;;;;;;;;;5037207;28;20220;-81
2022/07/19 05:23:48;;;;;;;11.43;3.00;;;;;;;;;;5037444;28;20204;-81
2022/07/19 05:26:15;;;;;;;9.03;3.20;;;;;;;;;;5035373;28;20667;-81
2022/07/19 05:28:43;;;;;;;9.40;2.90;;;;;;;;;;5033585;28;20326;-80
2022/07/19 05:31:15;;;;;;;5.20;2.70;;;;;;;;;;5036117;28;20215;-80
2022/07/19 05:33:45;;;;;;;10.40;3.17;;;;;;;;;;5037725;28;20207;-80
2022/07/19 05:36:16;;;;;;;7.33;3.13;;;;;;;;;;5036033;28;20291;-80
2022/07/19 05:38:43;;;;;;;13.27;3.13;;;;;;;;;;5035813;28;20250;-80
2022/07/19 05:41:25;;;;;;;10.20;3.10;;;;;;;;;;5032652;28;20270;-80
2022/07/19 05:43:53;;;;;;;15.33;3.33;;;;;;;;;;5032140;28;20199;-81
2022/07/19 05:46:21;;;;;;;12.37;3.10;;;;;;;;;;5038297;28;20204;-82
2022/07/19 05:48:51;;;;;;;6.33;3.03;;;;;;;;;;5038956;28;20231;-81
2022/07/19 05:51:24;;;;;;;7.00;3.00;;;;;;;;;;5040026;28;20532;-79
2022/07/19 05:53:55;;;;;;;7.03;2.60;;;;;;;;;;5034927;28;20302;-81
2022/07/19 05:56:39;;;;;;;12.70;3.27;;;;;;;;;;5038759;28;20232;-80
2022/07/19 05:59:16;;;;;;;10.57;3.13;;;;;;;;;;5036900;28;20232;-81
2022/07/19 06:01:53;;;;;;;6.00;2.80;;;;;;;;;;5035767;28;20267;-81
2022/07/19 06:04:26;;;;;;;7.30;2.80;;;;;;;;;;5036216;28;20213;-80
2022/07/19 06:09:39;;;;;;;16.07;2.87;;;;;;;;;;5036936;28;20237;-80
2022/07/19 06:12:08;;;;;;;11.40;3.07;;;;;;;;;;5036031;28;20207;-80
2022/07/19 06:14:35;;;;;;;7.47;3.30;;;;;;;;;;5033430;28;20272;-80
2022/07/19 06:17:02;;;;;;;10.43;3.00;;;;;;;;;;5032414;28;20195;-82
2022/07/19 06:19:39;;;;;;;4.93;2.87;;;;;;;;;;5035090;28;20805;-80
2022/07/19 06:22:07;;;;;;;7.27;2.63;;;;;;;;;;5032450;28;20210;-81
2022/07/19 06:24:36;;;;;;;8.23;2.80;;;;;;;;;;5033807;28;20591;-80
2022/07/19 06:27:03;;;;;;;10.10;2.70;;;;;;;;;;5032990;28;20212;-81
2022/07/19 06:29:38;;;;;;;8.87;2.73;;;;;;;;;;5039297;28;20227;-82
2022/07/19 06:32:06;;;;;;;7.80;2.93;;;;;;;;;;5033807;28;20214;-81
2022/07/19 06:34:34;;;;;;;10.33;2.80;;;;;;;;;;5035984;28;20217;-81
2022/07/19 06:37:03;;;;;;;9.03;2.60;;;;;;;;;;5036206;28;20214;-80
2022/07/19 06:39:35;;;;;;;13.57;2.90;;;;;;;;;;5036260;28;20251;-80
2022/07/19 06:42:05;;;;;;;4.60;2.90;;;;;;;;;;5037487;28;20207;-82
2022/07/19 06:44:51;;;;;;;7.87;2.63;;;;;;;;;;5034236;28;20211;-81
2022/07/19 06:47:19;;;;;;;6.20;2.63;;;;;;;;;;5033825;28;20208;-81
2022/07/19 06:49:53;;;;;;;5.70;2.63;;;;;;;;;;5033002;28;20235;-80
2022/07/19 06:52:20;;;;;;;7.83;2.90;;;;;;;;;;5036062;28;20220;-80
2022/07/19 06:54:47;;;;;;;5.83;2.70;;;;;;;;;;5039666;28;20204;-80
2022/07/19 06:57:15;;;;;;;6.60;2.60;;;;;;;;;;5038857;28;20611;-81
2022/07/19 06:59:46;;;;;;;9.77;2.93;;;;;;;;;;5038860;28;20261;-80
2022/07/19 07:02:15;;;;;;;13.23;2.67;;;;;;;;;;5036353;28;20203;-81
2022/07/19 07:04:42;;;;;;;12.83;2.70;;;;;;;;;;5039841;28;20219;-80
2022/07/19 07:07:10;;;;;;;14.43;2.73;;;;;;;;;;5040602;28;20280;-79
2022/07/19 07:09:37;;;;;;;7.22;2.70;;;;;;;;;;5036644;28;20232;-81
2022/07/19 07:12:05;;;;;;;5.68;2.25;;;;;;;;;;5040708;28;20231;-79
2022/07/19 07:14:47;;;;;;;9.45;2.72;;;;;;;;;;5041254;28;20290;-80
2022/07/19 07:17:25;;;;;;;7.53;2.25;;;;;;;;;;5044467;28;20690;-81
2022/07/19 07:19:59;;;;;;;6.88;2.58;;;;;;;;;;5040516;28;20207;-80
2022/07/19 07:22:26;;;;;;;7.28;2.58;;;;;;;;;;5039640;28;20200;-81
2022/07/19 07:24:56;;;;;;;5.72;2.30;;;;;;;;;;5036404;28;20203;-81
2022/07/19 07:27:24;;;;;;;8.32;2.38;;;;;;;;;;5042175;28;20231;-81
2022/07/19 07:29:56;;;;;;;5.93;2.47;;;;;;;;;;5039016;28;20220;-82
2022/07/19 07:32:26;;;;;;;8.23;3.92;;;;;;;;;;5038248;28;20216;-81
2022/07/19 07:34:54;;;;;;;41.88;18.65;;;;;;;;;;5035675;28;20211;-82
2022/07/19 07:37:21;;;;;;;9.45;2.97;;;;;;;;;;5037492;28;20265;-81
2022/07/19 07:39:48;;;;;;;17.23;4.82;;;;;;;;;;5039324;28;20580;-81
2022/07/19 07:42:16;;;;;;;8.65;2.50;;;;;;;;;;5040307;28;20203;-82
2022/07/19 07:44:43;;;;;;;5.82;2.65;;;;;;;;;;5043236;28;20207;-81
2022/07/19 07:47:10;;;;;;;7.13;3.42;;;;;;;;;;5043659;28;20698;-82
2022/07/19 07:49:40;;;;;;;9.63;2.95;;;;;;;;;;5044280;28;20245;-81
2022/07/19 07:52:08;;;;;;;12.05;3.65;;;;;;;;;;5044562;28;20195;-82
2022/07/19 07:54:36;;;;;;;9.63;2.50;;;;;;;;;;5054691;28;20196;-81
2022/07/19 07:57:03;;;;;;;17.30;2.55;;;;;;;;;;5047389;28;20211;-82
2022/07/19 07:59:31;;;;;;;9.55;2.97;;;;;;;;;;5041463;28;20251;-81
2022/07/19 08:01:58;;;;;;;11.18;3.05;;;;;;;;;;5039249;28;20212;-81
2022/07/19 08:04:26;;;;;;;9.55;2.58;;;;;;;;;;5039548;28;20208;-82
2022/07/19 08:06:56;;;;;;;7.35;2.22;;;;;;;;;;5037788;28;20212;-79
2022/07/19 08:09:26;;;;;;;7.57;2.42;;;;;;;;;;5039959;28;20255;-82
2022/07/19 08:11:56;;;;;;;9.43;2.42;;;;;;;;;;5036306;28;20215;-81
2022/07/19 08:14:27;;;;;;;9.93;2.33;;;;;;;;;;5033783;28;20208;-82
2022/07/19 08:16:54;;;;;;;5.63;2.15;;;;;;;;;;5041860;28;20215;-82
2022/07/19 08:19:22;;;;;;;13.13;2.55;;;;;;;;;;5037802;28;20224;-82
2022/07/19 08:21:49;;;;;;;9.25;2.35;;;;;;;;;;5039028;28;20208;-82
2022/07/19 08:24:20;;;;;;;5.40;2.13;;;;;;;;;;5042102;28;20255;-82
2022/07/19 08:26:47;;;;;;;17.00;2.30;;;;;;;;;;5037051;28;20221;-81
2022/07/19 08:29:15;;;;;;;7.05;3.17;;;;;;;;;;5035052;28;20326;-81
2022/07/19 08:31:42;;;;;;;6.97;1.98;;;;;;;;;;5038497;28;20217;-80
2022/07/19 08:34:09;;;;;;;10.75;2.10;;;;;;;;;;5036271;28;20237;-81
2022/07/19 08:36:37;;;;;;;5.20;1.90;;;;;;;;;;5040398;28;20239;-82
2022/07/19 08:39:10;;;;;;;6.85;2.20;;;;;;;;;;5039771;28;20207;-81
2022/07/19 08:41:40;;;;;;;6.75;1.95;;;;;;;;;;5038978;28;20294;-82
2022/07/19 08:44:13;;;;;;;8.65;2.15;;;;;;;;;;5040408;28;20211;-82
2022/07/19 08:46:41;;;;;;;8.65;2.30;;;;;;;;;;5039080;28;20276;-81
2022/07/19 08:49:09;;;;;;;4.90;1.95;;;;;;;;;;5038837;28;20255;-83
2022/07/19 08:51:37;;;;;;;6.57;2.00;;;;;;;;;;5038304;28;20231;-83
2022/07/19 08:54:11;;;;;;;5.15;2.03;;;;;;;;;;5033078;28;20548;-81
2022/07/19 08:59:25;;;;;;;5.75;2.00;;;;;;;;;;5039126;28;20583;-81
2022/07/19 09:01:53;;;;;;;8.73;1.58;;;;;;;;;;5037353;28;20315;-81
2022/07/19 09:04:24;;;;;;;7.40;2.20;;;;;;;;;;5036880;28;20216;-81
2022/07/19 09:06:53;;;;;;;4.85;2.17;;;;;;;;;;5039327;28;20227;-82
2022/07/19 09:09:28;;;;;;;6.20;1.92;;;;;;;;;;5053920;28;20246;-81
2022/07/19 09:12:01;;;;;;;5.40;1.70;;;;;;;;;;5035273;28;20223;-80
2022/07/19 09:14:32;;;;;;;8.37;1.93;;;;;;;;;;5036406;28;20207;-80
2022/07/19 09:17:06;;;;;;;9.47;1.87;;;;;;;;;;5034573;28;20211;-80
2022/07/19 09:19:46;;;;;;;5.00;1.55;;;;;;;;;;5038087;28;20281;-80
2022/07/19 09:22:14;;;;;;;7.20;1.77;;;;;;;;;;5033334;28;20203;-80
2022/07/19 09:24:44;;;;;;;4.37;1.93;;;;;;;;;;5026475;28;20231;-80
2022/07/19 09:27:36;;;;;;;9.52;1.55;;;;;;;;;;5035263;28;20431;-80
2022/07/19 09:30:03;;;;;;;5.30;1.73;;;;;;;;;;5032488;28;20215;-80
2022/07/19 09:32:30;;;;;;;5.20;1.77;;;;;;;;;;5034590;28;20208;-81
2022/07/19 09:34:58;;;;;;;6.32;1.80;;;;;;;;;;5036304;28;20211;-81
2022/07/19 09:37:28;;;;;;;3.38;1.73;;;;;;;;;;5034051;28;20271;-80
2022/07/19 09:40:01;;;;;;;3.05;1.58;;;;;;;;;;5035336;28;20204;-80
2022/07/19 09:42:37;;;;;;;4.97;1.85;;;;;;;;;;5038175;28;20235;-79
2022/07/19 09:45:08;;;;;;;5.40;1.83;;;;;;;;;;5038412;28;20196;-80
2022/07/19 09:47:39;;;;;;;4.00;1.52;;;;;;;;;;5032259;28;20234;-81
2022/07/19 09:50:07;;;;;;;4.88;1.70;;;;;;;;;;5039538;28;20238;-79
2022/07/19 09:52:35;;;;;;;6.20;1.90;;;;;;;;;;5038999;28;20246;-79
2022/07/19 09:55:03;;;;;;;6.53;1.57;;;;;;;;;;5051940;28;20275;-80
2022/07/19 09:57:42;;;;;;;6.57;1.80;;;;;;;;;;5039565;28;20243;-79
2022/07/19 10:00:12;;;;;;;4.47;1.75;;;;;;;;;;5036640;28;20230;-80
2022/07/19 10:02:52;;;;;;;2.22;1.73;;;;;;;;;;5032417;28;20211;-80
2022/07/19 10:05:19;;;;;;;8.38;1.60;;;;;;;;;;5036351;28;20219;-81
2022/07/19 10:07:47;;;;;;;4.05;1.80;;;;;;;;;;5037371;28;20254;-80
2022/07/19 10:10:15;;;;;;;4.00;1.45;;;;;;;;;;5039166;28;20293;-81
2022/07/19 10:12:46;;;;;;;3.88;1.58;;;;;;;;;;5038371;28;20207;-81
2022/07/19 10:15:26;;;;;;;5.15;1.75;;;;;;;;;;5039368;28;20235;-81
2022/07/19 10:18:00;;;;;;;3.80;1.50;;;;;;;;;;5050453;28;20211;-80
2022/07/19 10:20:28;;;;;;;5.07;1.70;;;;;;;;;;5039414;28;20199;-80
2022/07/19 10:22:58;;;;;;;4.50;1.50;;;;;;;;;;5036511;28;20211;-80
2022/07/19 10:25:40;;;;;;;1.83;1.38;;;;;;;;;;5042954;28;20211;-80
2022/07/19 10:28:21;;;;;;;3.55;1.63;;;;;;;;;;5042166;28;20291;-81
2022/07/19 10:34:02;;;;;;;3.35;1.80;;;;;;;;;;5040283;28;20216;-81
2022/07/19 10:36:35;;;;;;;9.13;1.70;;;;;;;;;;5039019;28;20196;-81
2022/07/19 10:39:23;;;;;;;9.70;2.05;;;;;;;;;;5040844;28;20306;-81
2022/07/19 10:42:10;;;;;;;6.85;1.45;;;;;;;;;;5037410;28;20205;-81
2022/07/19 10:44:59;;;;;;;5.93;2.00;;;;;;;;;;5042103;28;20259;-81
2022/07/19 10:47:49;;;;;;;6.03;1.90;;;;;;;;;;5038451;28;20522;-81
2022/07/19 10:53:02;;;;;;;3.70;1.73;;;;;;;;;;5039852;28;20835;-80
2022/07/19 10:55:29;;;;;;;8.40;1.70;;;;;;;;;;5044980;28;20231;-81
2022/07/19 10:58:09;;;;;;;3.95;1.38;;;;;;;;;;5040980;28;20218;-81
2022/07/19 11:00:47;;;;;;;4.28;1.88;;;;;;;;;;5044334;28;20196;-81
2022/07/19 11:03:31;;;;;;;7.45;1.67;;;;;;;;;;5041767;28;20275;-81
2022/07/19 11:06:29;;;;;;;4.07;1.60;;;;;;;;;;5053680;28;20240;-80
2022/07/19 11:09:02;;;;;;;7.82;2.00;;;;;;;;;;5048949;28;20248;-82
2022/07/19 11:11:37;;;;;;;5.63;1.90;;;;;;;;;;5047416;28;20223;-80
2022/07/19 11:14:16;;;;;;;8.25;1.80;;;;;;;;;;5041145;28;20258;-80
2022/07/19 11:16:46;;;;;;;4.90;1.80;;;;;;;;;;5043978;28;20199;-81
2022/07/19 11:19:14;;;;;;;4.13;1.75;;;;;;;;;;5053740;28;20233;-79
2022/07/19 11:21:47;;;;;;;7.05;2.10;;;;;;;;;;5054773;28;20213;-82
2022/07/19 11:24:14;;;;;;;3.55;1.90;;;;;;;;;;5046148;28;20201;-80
2022/07/19 11:26:42;;;;;;;7.97;2.03;;;;;;;;;;5045504;28;20229;-82
2022/07/19 11:29:12;;;;;;;6.00;2.13;;;;;;;;;;5041732;28;20253;-80
2022/07/19 11:31:50;;;;;;;4.57;1.80;;;;;;;;;;5040146;28;20299;-81
2022/07/19 11:34:18;;;;;;;2.47;1.60;;;;;;;;;;5039907;28;20207;-81
2022/07/19 11:36:57;;;;;;;5.38;2.20;;;;;;;;;;5038849;28;20204;-80
2022/07/19 11:39:25;;;;;;;11.43;2.38;;;;;;;;;;5036235;28;20227;-81
2022/07/19 11:41:55;;;;;;;4.80;2.20;;;;;;;;;;5041226;28;20262;-81
2022/07/19 11:44:25;;;;;;;4.15;2.33;;;;;;;;;;5031724;28;20215;-81
2022/07/19 11:47:12;;;;;;;8.50;2.20;;;;;;;;;;5042171;28;20216;-80
2022/07/19 11:49:40;;;;;;;4.47;2.20;;;;;;;;;;5032448;28;20227;-80
2022/07/19 11:52:10;;;;;;;7.80;2.13;;;;;;;;;;5037110;28;20239;-80
2022/07/19 11:54:38;;;;;;;8.38;1.90;;;;;;;;;;5039246;28;20193;-81
2022/07/19 11:57:06;;;;;;;3.80;2.17;;;;;;;;;;5038288;28;20216;-81
2022/07/19 11:59:36;;;;;;;7.18;2.45;;;;;;;;;;5039929;28;20232;-81
2022/07/19 12:02:03;;;;;;;6.05;2.65;;;;;;;;;;5043074;28;20686;-82
2022/07/19 12:04:45;;;;;;;7.53;2.50;;;;;;;;;;5035294;28;20210;-82
2022/07/19 12:07:23;;;;;;;9.13;2.00;;;;;;;;;;5037158;28;20292;-81
2022/07/19 12:09:53;;;;;;;6.85;2.55;;;;;;;;;;5034453;28;20227;-82
2022/07/19 12:12:22;;;;;;;7.85;2.60;;;;;;;;;;5040862;28;20223;-82
2022/07/19 12:14:49;;;;;;;4.88;2.15;;;;;;;;;;5034357;28;20211;-83
2022/07/19 12:17:17;;;;;;;5.57;2.45;;;;;;;;;;5034586;28;20205;-82
2022/07/19 12:19:45;;;;;;;9.00;2.40;;;;;;;;;;5038746;28;20256;-82
2022/07/19 12:22:32;;;;;;;6.85;2.22;;;;;;;;;;5038589;28;20204;-82
2022/07/19 12:25:01;;;;;;;9.80;2.10;;;;;;;;;;5040187;28;20196;-82
2022/07/19 12:27:31;;;;;;;9.90;2.30;;;;;;;;;;5037028;28;20220;-81
2022/07/19 12:29:59;;;;;;;5.18;2.20;;;;;;;;;;5033741;28;20208;-81
2022/07/19 12:32:30;;;;;;;5.30;2.00;;;;;;;;;;5036364;28;20231;-82
2022/07/19 12:34:59;;;;;;;4.35;2.30;;;;;;;;;;5036378;28;20205;-82
2022/07/19 12:37:27;;;;;;;7.93;2.17;;;;;;;;;;5033440;28;20223;-82
2022/07/19 12:40:00;;;;;;;3.58;1.98;;;;;;;;;;5035925;28;20225;-82
2022/07/19 12:42:27;;;;;;;4.07;2.08;;;;;;;;;;5034004;28;20205;-82
2022/07/19 12:44:57;;;;;;;7.13;2.53;;;;;;;;;;5037738;28;20196;-82
2022/07/19 12:47:40;;;;;;;10.52;2.05;;;;;;;;;;5044340;28;20209;-81
2022/07/19 12:50:12;;;;;;;5.82;2.42;;;;;;;;;;5035582;28;20582;-81
2022/07/19 12:52:44;;;;;;;7.78;2.55;;;;;;;;;;5036622;28;20213;-81
2022/07/19 12:55:13;;;;;;;8.20;2.55;;;;;;;;;;5039904;28;20238;-82
2022/07/19 12:57:40;;;;;;;6.55;2.53;;;;;;;;;;5037868;28;20859;-83
2022/07/19 13:00:11;;;;;;;5.25;2.55;;;;;;;;;;5034878;28;20584;-83
2022/07/19 13:02:38;;;;;;;4.85;2.10;;;;;;;;;;5036340;28;20208;-82
2022/07/19 13:05:06;;;;;;;5.00;2.30;;;;;;;;;;5037340;28;20200;-83
2022/07/19 13:07:36;;;;;;;5.35;2.20;;;;;;;;;;5036032;28;20207;-82
2022/07/19 13:10:04;;;;;;;6.38;2.20;;;;;;;;;;5034318;28;20238;-83
2022/07/19 13:12:33;;;;;;;7.47;2.28;;;;;;;;;;5030588;28;20707;-82
2022/07/19 13:15:02;;;;;;;4.10;2.20;;;;;;;;;;5031578;28;20227;-82
2022/07/19 13:17:30;;;;;;;9.38;2.55;;;;;;;;;;5039681;28;20739;-83
2022/07/19 13:20:04;;;;;;;5.68;2.00;;;;;;;;;;5036851;28;20235;-81
2022/07/19 13:22:32;;;;;;;8.05;2.25;;;;;;;;;;5037867;28;21805;-81
2022/07/19 13:24:59;;;;;;;4.40;1.73;;;;;;;;;;5040405;28;20209;-82
2022/07/19 13:27:35;;;;;;;8.30;2.22;;;;;;;;;;5036554;28;20213;-82
2022/07/19 13:30:30;;;;;;;2.80;1.88;;;;;;;;;;5042418;28;20204;-81
2022/07/19 13:33:04;;;;;;;8.50;2.13;;;;;;;;;;5034950;28;20278;-82
2022/07/19 13:35:33;;;;;;;3.72;2.00;;;;;;;;;;5040468;28;20298;-82
2022/07/19 13:38:01;;;;;;;3.85;2.13;;;;;;;;;;5036884;28;20229;-82
2022/07/19 13:40:28;;;;;;;4.05;1.83;;;;;;;;;;5030344;28;20768;-82
2022/07/19 13:42:58;;;;;;;4.30;2.17;;;;;;;;;;5040353;28;20230;-80
2022/07/19 13:45:27;;;;;;;3.63;2.00;;;;;;;;;;5046440;28;20221;-79
2022/07/19 13:47:57;;;;;;;6.22;2.38;;;;;;;;;;5042363;28;20694;-81
2022/07/19 13:50:32;;;;;;;10.07;2.42;;;;;;;;;;5042354;28;20255;-80
2022/07/19 13:53:03;;;;;;;6.38;2.17;;;;;;;;;;5036794;28;20307;-81
2022/07/19 13:55:36;;;;;;;6.68;2.00;;;;;;;;;;5035313;28;20668;-80
2022/07/19 13:58:03;;;;;;;3.28;2.20;;;;;;;;;;5038120;28;20600;-80
2022/07/19 14:00:32;;;;;;;5.30;1.95;;;;;;;;;;5036555;28;20693;-80
2022/07/19 14:02:59;;;;;;;3.83;2.17;;;;;;;;;;5037909;28;20466;-80
2022/07/19 14:05:29;;;;;;;5.72;2.17;;;;;;;;;;5038040;28;20245;-81
2022/07/19 14:08:00;;;;;;;7.65;2.05;;;;;;;;;;5037434;28;20230;-81
2022/07/19 14:10:27;;;;;;;4.80;2.20;;;;;;;;;;5036748;28;20193;-81
2022/07/19 14:12:55;;;;;;;5.18;2.17;;;;;;;;;;5037372;28;20226;-80
2022/07/19 14:15:25;;;;;;;9.85;2.40;;;;;;;;;;5031034;28;20223;-80
2022/07/19 14:17:54;;;;;;;7.22;2.00;;;;;;;;;;5038338;28;20218;-81
2022/07/19 14:20:22;;;;;;;7.95;2.00;;;;;;;;;;5036459;28;20206;-82
2022/07/19 14:22:50;;;;;;;8.55;2.25;;;;;;;;;;5038981;28;20215;-82
2022/07/19 14:25:17;;;;;;;2.55;2.00;;;;;;;;;;5034256;28;20214;-82
2022/07/19 14:27:44;;;;;;;8.02;2.17;;;;;;;;;;5030342;28;20239;-80
2022/07/19 14:30:16;;;;;;;3.38;2.28;;;;;;;;;;5033204;28;20218;-81
2022/07/19 14:32:44;;;;;;;4.57;2.10;;;;;;;;;;5034908;28;20561;-80
2022/07/19 14:35:16;;;;;;;7.82;1.88;;;;;;;;;;5039236;28;20202;-81
2022/07/19 14:37:44;;;;;;;6.22;1.80;;;;;;;;;;5036765;28;20217;-82
2022/07/19 14:40:15;;;;;;;5.25;1.90;;;;;;;;;;5039823;28;20206;-82
2022/07/19 14:42:45;;;;;;;4.38;1.85;;;;;;;;;;5037186;28;20202;-82
2022/07/19 14:45:13;;;;;;;10.40;2.08;;;;;;;;;;5047090;28;20210;-82
2022/07/19 14:47:40;;;;;;;4.65;1.80;;;;;;;;;;5049783;28;20198;-82
2022/07/19 14:50:12;;;;;;;7.05;2.10;;;;;;;;;;5039890;28;20217;-81
2022/07/19 14:52:41;;;;;;;7.72;1.92;;;;;;;;;;5040325;28;20298;-80
2022/07/19 14:55:42;;;;;;;3.83;1.75;;;;;;;;;;5043331;28;20194;-79
2022/07/19 14:58:18;;;;;;;4.55;1.67;;;;;;;;;;4996623;28;20239;-81
2022/07/19 15:00:49;;;;;;;2.85;1.90;;;;;;;;;;4994678;28;20234;-81
2022/07/19 15:03:19;;;;;;;3.10;1.77;;;;;;;;;;4992945;28;20699;-80
2022/07/19 15:08:32;;;;;;;4.68;1.70;;;;;;;;;;5035514;28;20241;-81
2022/07/19 15:11:00;;;;;;;11.25;2.20;;;;;;;;;;5042014;28;20197;-82
2022/07/19 15:13:37;;;;;;;4.00;1.98;;;;;;;;;;5043130;28;20223;-81